Aviation Digital Data Service (ADDS)

Output produced by METARs form (1512 UTC 19 January 2019)
found at http://www.aviationweather.gov/metar/data/
 
METAR text: CYWG 191500Z 30005KT 15SM SKC M32/M36 A3047 RMK SLP357
Conditions at: CYWG (WINNIPEG INTL AR, MB, CA) observed 1500 UTC 19 January 2019
Temperature: -32.0°C (-26°F)
Dewpoint: -36.0°C (-33°F) [RH = 68%]
Pressure (altimeter): 30.47 inches Hg (1031.9 mb)
[Sea-level pressure: 1035.7 mb]
Winds: from the WNW (300 degrees) at 6 MPH (5 knots; 2.6 m/s)
Visibility: 15 miles (24 km)
Ceiling: at least 12,000 feet AGL
Clouds: clear skies
Weather: no significant weather observed at this time

METAR text: CYWG 191400Z 27005KT 15SM SKC M30/M34 A3048 RMK SLP357
Conditions at: CYWG (WINNIPEG INTL AR, MB, CA) observed 1400 UTC 19 January 2019
Temperature: -30.0°C (-22°F)
Dewpoint: -34.0°C (-29°F) [RH = 68%]
Pressure (altimeter): 30.48 inches Hg (1032.3 mb)
[Sea-level pressure: 1035.7 mb]
Winds: from the W (270 degrees) at 6 MPH (5 knots; 2.6 m/s)
Visibility: 15 miles (24 km)
Ceiling: at least 12,000 feet AGL
Clouds: clear skies
Weather: no significant weather observed at this time

METAR text: CYWG 191300Z 26003KT 220V300 15SM SKC M30/M33 A3047 RMK SLP355
Conditions at: CYWG (WINNIPEG INTL AR, MB, CA) observed 1300 UTC 19 January 2019
Temperature: -30.0°C (-22°F)
Dewpoint: -33.0°C (-27°F) [RH = 75%]
Pressure (altimeter): 30.47 inches Hg (1031.9 mb)
[Sea-level pressure: 1035.5 mb]
Winds: from the W (260 degrees) at 3 MPH (3 knots; 1.5 m/s)
Visibility: 15 miles (24 km)
Ceiling: at least 12,000 feet AGL
Clouds: clear skies
Weather: no significant weather observed at this time

METAR text: CYWG 191200Z 21006KT 15SM SKC M29/M33 A3046 RMK SLP350
Conditions at: CYWG (WINNIPEG INTL AR, MB, CA) observed 1200 UTC 19 January 2019
Temperature: -29.0°C (-20°F)
Dewpoint: -33.0°C (-27°F) [RH = 68%]
Pressure (altimeter): 30.46 inches Hg (1031.6 mb)
[Sea-level pressure: 1035.0 mb]
Winds: from the SSW (210 degrees) at 7 MPH (6 knots; 3.1 m/s)
Visibility: 15 miles (24 km)
Ceiling: at least 12,000 feet AGL
Clouds: clear skies
Weather: no significant weather observed at this time

METAR text: CYWG 191100Z 22004KT 15SM SKC M29/M33 A3048 RMK SLP357
Conditions at: CYWG (WINNIPEG INTL AR, MB, CA) observed 1100 UTC 19 January 2019
Temperature: -29.0°C (-20°F)
Dewpoint: -33.0°C (-27°F) [RH = 68%]
Pressure (altimeter): 30.48 inches Hg (1032.3 mb)
[Sea-level pressure: 1035.7 mb]
Winds: from the SW (220 degrees) at 5 MPH (4 knots; 2.1 m/s)
Visibility: 15 miles (24 km)
Ceiling: at least 12,000 feet AGL
Clouds: clear skies
Weather: no significant weather observed at this time

METAR text: CYWG 191000Z 20007KT 15SM SKC M28/M32 A3048 RMK SLP356
Conditions at: CYWG (WINNIPEG INTL AR, MB, CA) observed 1000 UTC 19 January 2019
Temperature: -28.0°C (-18°F)
Dewpoint: -32.0°C (-26°F) [RH = 69%]
Pressure (altimeter): 30.48 inches Hg (1032.3 mb)
[Sea-level pressure: 1035.6 mb]
Winds: from the SSW (200 degrees) at 8 MPH (7 knots; 3.6 m/s)
Visibility: 15 miles (24 km)
Ceiling: at least 12,000 feet AGL
Clouds: clear skies
Weather: no significant weather observed at this time

METAR text: CYWG 190900Z 22009KT 15SM SKC M28/M32 A3050 RMK SLP364
Conditions at: CYWG (WINNIPEG INTL AR, MB, CA) observed 0900 UTC 19 January 2019
Temperature: -28.0°C (-18°F)
Dewpoint: -32.0°C (-26°F) [RH = 69%]
Pressure (altimeter): 30.50 inches Hg (1032.9 mb)
[Sea-level pressure: 1036.4 mb]
Winds: from the SW (220 degrees) at 10 MPH (9 knots; 4.6 m/s)
Visibility: 15 miles (24 km)
Ceiling: at least 12,000 feet AGL
Clouds: clear skies
Weather: no significant weather observed at this time

METAR text: CYWG 190800Z 22007KT 15SM SKC M28/M32 A3051 RMK SLP366
Conditions at: CYWG (WINNIPEG INTL AR, MB, CA) observed 0800 UTC 19 January 2019
Temperature: -28.0°C (-18°F)
Dewpoint: -32.0°C (-26°F) [RH = 69%]
Pressure (altimeter): 30.51 inches Hg (1033.3 mb)
[Sea-level pressure: 1036.6 mb]
Winds: from the SW (220 degrees) at 8 MPH (7 knots; 3.6 m/s)
Visibility: 15 miles (24 km)
Ceiling: at least 12,000 feet AGL
Clouds: clear skies
Weather: no significant weather observed at this time

METAR text: CYWG 190700Z 22005KT 15SM SCT150 M28/M32 A3052 RMK AC3 SLP372
Conditions at: CYWG (WINNIPEG INTL AR, MB, CA) observed 0700 UTC 19 January 2019
Temperature: -28.0°C (-18°F)
Dewpoint: -32.0°C (-26°F) [RH = 69%]
Pressure (altimeter): 30.52 inches Hg (1033.6 mb)
[Sea-level pressure: 1037.2 mb]
Winds: from the SW (220 degrees) at 6 MPH (5 knots; 2.6 m/s)
Visibility: 15 miles (24 km)
Ceiling: at least 12,000 feet AGL
Clouds: scattered clouds at 15000 feet AGL
Weather: no significant weather observed at this time

METAR text: CYWG 190600Z 23005KT 15SM FEW150 M29/M33 A3053 RMK AC2 SLP374
Conditions at: CYWG (WINNIPEG INTL AR, MB, CA) observed 0600 UTC 19 January 2019
Temperature: -29.0°C (-20°F)
Dewpoint: -33.0°C (-27°F) [RH = 68%]
Pressure (altimeter): 30.53 inches Hg (1033.9 mb)
[Sea-level pressure: 1037.4 mb]
Winds: from the SW (230 degrees) at 6 MPH (5 knots; 2.6 m/s)
Visibility: 15 miles (24 km)
Ceiling: at least 12,000 feet AGL
Clouds: few clouds at 15000 feet AGL
Weather: no significant weather observed at this time

METAR text: CYWG 190500Z 23005KT 15SM SCT160 M28/M32 A3053 RMK AC4 SLP375
Conditions at: CYWG (WINNIPEG INTL AR, MB, CA) observed 0500 UTC 19 January 2019
Temperature: -28.0°C (-18°F)
Dewpoint: -32.0°C (-26°F) [RH = 69%]
Pressure (altimeter): 30.53 inches Hg (1033.9 mb)
[Sea-level pressure: 1037.5 mb]
Winds: from the SW (230 degrees) at 6 MPH (5 knots; 2.6 m/s)
Visibility: 15 miles (24 km)
Ceiling: at least 12,000 feet AGL
Clouds: scattered clouds at 16000 feet AGL
Weather: no significant weather observed at this time

METAR text: CYWG 190400Z 22005KT 15SM SKC M28/M31 A3053 RMK SLP374
Conditions at: CYWG (WINNIPEG INTL AR, MB, CA) observed 0400 UTC 19 January 2019
Temperature: -28.0°C (-18°F)
Dewpoint: -31.0°C (-24°F) [RH = 75%]
Pressure (altimeter): 30.53 inches Hg (1033.9 mb)
[Sea-level pressure: 1037.4 mb]
Winds: from the SW (220 degrees) at 6 MPH (5 knots; 2.6 m/s)
Visibility: 15 miles (24 km)
Ceiling: at least 12,000 feet AGL
Clouds: clear skies
Weather: no significant weather observed at this time

METAR text: CYWG 190300Z 24005KT 15SM SKC M28/M32 A3052 RMK SLP372
Conditions at: CYWG (WINNIPEG INTL AR, MB, CA) observed 0300 UTC 19 January 2019
Temperature: -28.0°C (-18°F)
Dewpoint: -32.0°C (-26°F) [RH = 69%]
Pressure (altimeter): 30.52 inches Hg (1033.6 mb)
[Sea-level pressure: 1037.2 mb]
Winds: from the WSW (240 degrees) at 6 MPH (5 knots; 2.6 m/s)
Visibility: 15 miles (24 km)
Ceiling: at least 12,000 feet AGL
Clouds: clear skies
Weather: no significant weather observed at this time

METAR text: CYWG 190200Z 27004KT 15SM SKC M27/M31 A3052 RMK SLP371
Conditions at: CYWG (WINNIPEG INTL AR, MB, CA) observed 0200 UTC 19 January 2019
Temperature: -27.0°C (-17°F)
Dewpoint: -31.0°C (-24°F) [RH = 69%]
Pressure (altimeter): 30.52 inches Hg (1033.6 mb)
[Sea-level pressure: 1037.1 mb]
Winds: from the W (270 degrees) at 5 MPH (4 knots; 2.1 m/s)
Visibility: 15 miles (24 km)
Ceiling: at least 12,000 feet AGL
Clouds: clear skies
Weather: no significant weather observed at this time

METAR text: CYWG 190100Z 23005KT 15SM FEW240 M28/M32 A3053 RMK CI1 SLP375
Conditions at: CYWG (WINNIPEG INTL AR, MB, CA) observed 0100 UTC 19 January 2019
Temperature: -28.0°C (-18°F)
Dewpoint: -32.0°C (-26°F) [RH = 69%]
Pressure (altimeter): 30.53 inches Hg (1033.9 mb)
[Sea-level pressure: 1037.5 mb]
Winds: from the SW (230 degrees) at 6 MPH (5 knots; 2.6 m/s)
Visibility: 15 miles (24 km)
Ceiling: at least 12,000 feet AGL
Clouds: few clouds at 24000 feet AGL
Weather: no significant weather observed at this time

METAR text: CYWG 190000Z 25004KT 15SM SCT240 M27/M32 A3053 RMK CI3 SLP376
Conditions at: CYWG (WINNIPEG INTL AR, MB, CA) observed 0000 UTC 19 January 2019
Temperature: -27.0°C (-17°F)
Dewpoint: -32.0°C (-26°F) [RH = 63%]
Pressure (altimeter): 30.53 inches Hg (1033.9 mb)
[Sea-level pressure: 1037.6 mb]
Winds: from the WSW (250 degrees) at 5 MPH (4 knots; 2.1 m/s)
Visibility: 15 miles (24 km)
Ceiling: at least 12,000 feet AGL
Clouds: scattered clouds at 24000 feet AGL
Weather: no significant weather observed at this time

METAR text: CYWG 182300Z 26003KT 15SM FEW210 SCT250 M27/M32 A3053 RMK CI1CI2 SLP375
Conditions at: CYWG (WINNIPEG INTL AR, MB, CA) observed 2300 UTC 18 January 2019
Temperature: -27.0°C (-17°F)
Dewpoint: -32.0°C (-26°F) [RH = 63%]
Pressure (altimeter): 30.53 inches Hg (1033.9 mb)
[Sea-level pressure: 1037.5 mb]
Winds: from the W (260 degrees) at 3 MPH (3 knots; 1.5 m/s)
Visibility: 15 miles (24 km)
Ceiling: at least 12,000 feet AGL
Clouds: few clouds at 21000 feet AGL
scattered clouds at 25000 feet AGL
Weather: no significant weather observed at this time

METAR text: CYWG 182200Z 29002KT 15SM FEW260 M26/M31 A3052 RMK CI2 SLP371
Conditions at: CYWG (WINNIPEG INTL AR, MB, CA) observed 2200 UTC 18 January 2019
Temperature: -26.0°C (-15°F)
Dewpoint: -31.0°C (-24°F) [RH = 63%]
Pressure (altimeter): 30.52 inches Hg (1033.6 mb)
[Sea-level pressure: 1037.1 mb]
Winds: from the WNW (290 degrees) at 2 MPH (2 knots; 1.0 m/s)
Visibility: 15 miles (24 km)
Ceiling: at least 12,000 feet AGL
Clouds: few clouds at 26000 feet AGL
Weather: no significant weather observed at this time

METAR text: CYWG 182100Z 31005KT 15SM BKN260 M26/M31 A3052 RMK CI5 SLP371
Conditions at: CYWG (WINNIPEG INTL AR, MB, CA) observed 2100 UTC 18 January 2019
Temperature: -26.0°C (-15°F)
Dewpoint: -31.0°C (-24°F) [RH = 63%]
Pressure (altimeter): 30.52 inches Hg (1033.6 mb)
[Sea-level pressure: 1037.1 mb]
Winds: from the NW (310 degrees) at 6 MPH (5 knots; 2.6 m/s)
Visibility: 15 miles (24 km)
Ceiling: 26000 feet AGL
Clouds: broken clouds at 26000 feet AGL
Weather: no significant weather observed at this time

METAR text: CYWG 182000Z 31005KT 15SM BKN260 M27/M32 A3051 RMK CI6 SLP369
Conditions at: CYWG (WINNIPEG INTL AR, MB, CA) observed 2000 UTC 18 January 2019
Temperature: -27.0°C (-17°F)
Dewpoint: -32.0°C (-26°F) [RH = 63%]
Pressure (altimeter): 30.51 inches Hg (1033.3 mb)
[Sea-level pressure: 1036.9 mb]
Winds: from the NW (310 degrees) at 6 MPH (5 knots; 2.6 m/s)
Visibility: 15 miles (24 km)
Ceiling: 26000 feet AGL
Clouds: broken clouds at 26000 feet AGL
Weather: no significant weather observed at this time

METAR text: CYWG 181900Z 32004KT 15SM BKN240 M27/M32 A3052 RMK CI6 SLP371
Conditions at: CYWG (WINNIPEG INTL AR, MB, CA) observed 1900 UTC 18 January 2019
Temperature: -27.0°C (-17°F)
Dewpoint: -32.0°C (-26°F) [RH = 63%]
Pressure (altimeter): 30.52 inches Hg (1033.6 mb)
[Sea-level pressure: 1037.1 mb]
Winds: from the NW (320 degrees) at 5 MPH (4 knots; 2.1 m/s)
Visibility: 15 miles (24 km)
Ceiling: 24000 feet AGL
Clouds: broken clouds at 24000 feet AGL
Weather: no significant weather observed at this time

METAR text: CYWG 181800Z 31004KT 15SM BKN240 M28/M32 A3053 RMK CI6 SLP375
Conditions at: CYWG (WINNIPEG INTL AR, MB, CA) observed 1800 UTC 18 January 2019
Temperature: -28.0°C (-18°F)
Dewpoint: -32.0°C (-26°F) [RH = 69%]
Pressure (altimeter): 30.53 inches Hg (1033.9 mb)
[Sea-level pressure: 1037.5 mb]
Winds: from the NW (310 degrees) at 5 MPH (4 knots; 2.1 m/s)
Visibility: 15 miles (24 km)
Ceiling: 24000 feet AGL
Clouds: broken clouds at 24000 feet AGL
Weather: no significant weather observed at this time

METAR text: CYWG 181700Z 36003KT 15SM BKN240 M28/M32 A3053 RMK CI6 SLP374
Conditions at: CYWG (WINNIPEG INTL AR, MB, CA) observed 1700 UTC 18 January 2019
Temperature: -28.0°C (-18°F)
Dewpoint: -32.0°C (-26°F) [RH = 69%]
Pressure (altimeter): 30.53 inches Hg (1033.9 mb)
[Sea-level pressure: 1037.4 mb]
Winds: from the N (360 degrees) at 3 MPH (3 knots; 1.5 m/s)
Visibility: 15 miles (24 km)
Ceiling: 24000 feet AGL
Clouds: broken clouds at 24000 feet AGL
Weather: no significant weather observed at this time

METAR text: CYWG 181600Z 32002KT 15SM BKN240 M29/M33 A3051 RMK CI7 SLP366
Conditions at: CYWG (WINNIPEG INTL AR, MB, CA) observed 1600 UTC 18 January 2019
Temperature: -29.0°C (-20°F)
Dewpoint: -33.0°C (-27°F) [RH = 68%]
Pressure (altimeter): 30.51 inches Hg (1033.3 mb)
[Sea-level pressure: 1036.6 mb]
Winds: from the NW (320 degrees) at 2 MPH (2 knots; 1.0 m/s)
Visibility: 15 miles (24 km)
Ceiling: 24000 feet AGL
Clouds: broken clouds at 24000 feet AGL
Weather: no significant weather observed at this time

METAR text: CYWG 181500Z 34004KT 15SM BKN240 M29/M33 A3048 RMK CI6 SLP356
Conditions at: CYWG (WINNIPEG INTL AR, MB, CA) observed 1500 UTC 18 January 2019
Temperature: -29.0°C (-20°F)
Dewpoint: -33.0°C (-27°F) [RH = 68%]
Pressure (altimeter): 30.48 inches Hg (1032.3 mb)
[Sea-level pressure: 1035.6 mb]
Winds: from the NNW (340 degrees) at 5 MPH (4 knots; 2.1 m/s)
Visibility: 15 miles (24 km)
Ceiling: 24000 feet AGL
Clouds: broken clouds at 24000 feet AGL
Weather: no significant weather observed at this time

METAR text: CYWG 181400Z 34006KT 15SM BKN240 M29/M33 A3044 RMK CI6 SLP343
Conditions at: CYWG (WINNIPEG INTL AR, MB, CA) observed 1400 UTC 18 January 2019
Temperature: -29.0°C (-20°F)
Dewpoint: -33.0°C (-27°F) [RH = 68%]
Pressure (altimeter): 30.44 inches Hg (1030.9 mb)
[Sea-level pressure: 1034.3 mb]
Winds: from the NNW (340 degrees) at 7 MPH (6 knots; 3.1 m/s)
Visibility: 15 miles (24 km)
Ceiling: 24000 feet AGL
Clouds: broken clouds at 24000 feet AGL
Weather: no significant weather observed at this time

METAR text: CYWG 181300Z 32005KT 15SM BKN230 M30/M34 A3042 RMK CI5 SLP336
Conditions at: CYWG (WINNIPEG INTL AR, MB, CA) observed 1300 UTC 18 January 2019
Temperature: -30.0°C (-22°F)
Dewpoint: -34.0°C (-29°F) [RH = 68%]
Pressure (altimeter): 30.42 inches Hg (1030.2 mb)
[Sea-level pressure: 1033.6 mb]
Winds: from the NW (320 degrees) at 6 MPH (5 knots; 2.6 m/s)
Visibility: 15 miles (24 km)
Ceiling: 23000 feet AGL
Clouds: broken clouds at 23000 feet AGL
Weather: no significant weather observed at this time

METAR text: CYWG 181200Z 27006KT 15SM SCT230 M30/M34 A3041 RMK CI4 SLP333
Conditions at: CYWG (WINNIPEG INTL AR, MB, CA) observed 1200 UTC 18 January 2019
Temperature: -30.0°C (-22°F)
Dewpoint: -34.0°C (-29°F) [RH = 68%]
Pressure (altimeter): 30.41 inches Hg (1029.9 mb)
[Sea-level pressure: 1033.3 mb]
Winds: from the W (270 degrees) at 7 MPH (6 knots; 3.1 m/s)
Visibility: 15 miles (24 km)
Ceiling: at least 12,000 feet AGL
Clouds: scattered clouds at 23000 feet AGL
Weather: no significant weather observed at this time

METAR text: CYWG 181100Z 31003KT 15SM FEW170 M30/M34 A3039 RMK AC2 SLP327
Conditions at: CYWG (WINNIPEG INTL AR, MB, CA) observed 1100 UTC 18 January 2019
Temperature: -30.0°C (-22°F)
Dewpoint: -34.0°C (-29°F) [RH = 68%]
Pressure (altimeter): 30.39 inches Hg (1029.2 mb)
[Sea-level pressure: 1032.7 mb]
Winds: from the NW (310 degrees) at 3 MPH (3 knots; 1.5 m/s)
Visibility: 15 miles (24 km)
Ceiling: at least 12,000 feet AGL
Clouds: few clouds at 17000 feet AGL
Weather: no significant weather observed at this time

METAR text: CYWG 181000Z VRB07G15KT 15SM FEW170 M26/M30 A3036 RMK AC2 SLP314
Conditions at: CYWG (WINNIPEG INTL AR, MB, CA) observed 1000 UTC 18 January 2019
Temperature: -26.0°C (-15°F)
Dewpoint: -30.0°C (-22°F) [RH = 69%]
Pressure (altimeter): 30.36 inches Hg (1028.2 mb)
[Sea-level pressure: 1031.4 mb]
Winds: variable direction winds at 8 MPH (7 knots; 3.6 m/s)
gusting to 17 MPH (15 knots; 7.7 m/s)
Visibility: 15 miles (24 km)
Ceiling: at least 12,000 feet AGL
Clouds: few clouds at 17000 feet AGL
Weather: no significant weather observed at this time

METAR text: CYWG 180900Z 36005KT 15SM SKC M28/M33 A3036 RMK SLP313
Conditions at: CYWG (WINNIPEG INTL AR, MB, CA) observed 0900 UTC 18 January 2019
Temperature: -28.0°C (-18°F)
Dewpoint: -33.0°C (-27°F) [RH = 62%]
Pressure (altimeter): 30.36 inches Hg (1028.2 mb)
[Sea-level pressure: 1031.3 mb]
Winds: from the N (360 degrees) at 6 MPH (5 knots; 2.6 m/s)
Visibility: 15 miles (24 km)
Ceiling: at least 12,000 feet AGL
Clouds: clear skies
Weather: no significant weather observed at this time

METAR text: CYWG 180800Z 35008KT 15SM SKC M28/M32 A3034 RMK SLP305
Conditions at: CYWG (WINNIPEG INTL AR, MB, CA) observed 0800 UTC 18 January 2019
Temperature: -28.0°C (-18°F)
Dewpoint: -32.0°C (-26°F) [RH = 69%]
Pressure (altimeter): 30.34 inches Hg (1027.5 mb)
[Sea-level pressure: 1030.5 mb]
Winds: from the N (350 degrees) at 9 MPH (8 knots; 4.1 m/s)
Visibility: 15 miles (24 km)
Ceiling: at least 12,000 feet AGL
Clouds: clear skies
Weather: no significant weather observed at this time

METAR text: CYWG 180700Z 32007KT 15SM SKC M27/M32 A3033 RMK SLP301
Conditions at: CYWG (WINNIPEG INTL AR, MB, CA) observed 0700 UTC 18 January 2019
Temperature: -27.0°C (-17°F)
Dewpoint: -32.0°C (-26°F) [RH = 63%]
Pressure (altimeter): 30.33 inches Hg (1027.2 mb)
[Sea-level pressure: 1030.1 mb]
Winds: from the NW (320 degrees) at 8 MPH (7 knots; 3.6 m/s)
Visibility: 15 miles (24 km)
Ceiling: at least 12,000 feet AGL
Clouds: clear skies
Weather: no significant weather observed at this time

METAR text: CYWG 180600Z 34007KT 15SM SKC M27/M31 A3031 RMK SLP295
Conditions at: CYWG (WINNIPEG INTL AR, MB, CA) observed 0600 UTC 18 January 2019
Temperature: -27.0°C (-17°F)
Dewpoint: -31.0°C (-24°F) [RH = 69%]
Pressure (altimeter): 30.31 inches Hg (1026.5 mb)
[Sea-level pressure: 1029.5 mb]
Winds: from the NNW (340 degrees) at 8 MPH (7 knots; 3.6 m/s)
Visibility: 15 miles (24 km)
Ceiling: at least 12,000 feet AGL
Clouds: clear skies
Weather: no significant weather observed at this time

METAR text: CYWG 180500Z 33008KT 15SM SKC M26/M31 A3029 RMK SLP290
Conditions at: CYWG (WINNIPEG INTL AR, MB, CA) observed 0500 UTC 18 January 2019
Temperature: -26.0°C (-15°F)
Dewpoint: -31.0°C (-24°F) [RH = 63%]
Pressure (altimeter): 30.29 inches Hg (1025.8 mb)
[Sea-level pressure: 1029.0 mb]
Winds: from the NNW (330 degrees) at 9 MPH (8 knots; 4.1 m/s)
Visibility: 15 miles (24 km)
Ceiling: at least 12,000 feet AGL
Clouds: clear skies
Weather: no significant weather observed at this time

METAR text: CYWG 180400Z 36010KT 15SM SKC M24/M28 A3027 RMK SLP281
Conditions at: CYWG (WINNIPEG INTL AR, MB, CA) observed 0400 UTC 18 January 2019
Temperature: -24.0°C (-11°F)
Dewpoint: -28.0°C (-18°F) [RH = 70%]
Pressure (altimeter): 30.27 inches Hg (1025.1 mb)
[Sea-level pressure: 1028.1 mb]
Winds: from the N (360 degrees) at 12 MPH (10 knots; 5.1 m/s)
Visibility: 15 miles (24 km)
Ceiling: at least 12,000 feet AGL
Clouds: clear skies
Weather: no significant weather observed at this time

Forecast for: CYWG (WINNIPEG INTL AR, MB, CA)
Text: TAF CYWG 191138Z 1912/2012 21007KT P6SM SKC
Forecast period: 1200 to 1400 UTC 19 January 2019
Forecast type: FROM: standard forecast or significant change
Winds: from the SSW (210 degrees) at 8 MPH (7 knots; 3.6 m/s)
Visibility: 6 or more miles 10+ km)
Clouds: clear skies
Weather: no significant weather forecast for this period
Text: BECMG 1914/1916 27008KT
Forecast period: 1400 to 1700 UTC 19 January 2019
Forecast type: BECOMING: Conditions expected to become as follows by 1600 UTC 19 January 2019
Winds: from the W (270 degrees) at 9 MPH (8 knots; 4.1 m/s)
Visibility: 6 or more miles 10+ km)
Clouds: clear skies
Weather: no significant weather forecast for this period
Text: BECMG 1917/1919 35008KT
Forecast period: 1700 UTC 19 January 2019 to 0500 UTC 20 January 2019
Forecast type: BECOMING: Conditions expected to become as follows by 1900 UTC 19 January 2019
Winds: from the N (350 degrees) at 9 MPH (8 knots; 4.1 m/s)
Visibility: 6 or more miles 10+ km)
Clouds: clear skies
Weather: no significant weather forecast for this period
Text: FM200500 07006KT P6SM SCT180 RMK NXT FCST BY 191800Z
Forecast period: 0500 to 1200 UTC 20 January 2019
Forecast type: FROM: standard forecast or significant change
Winds: from the ENE (70 degrees) at 7 MPH (6 knots; 3.1 m/s)
Visibility: 6 or more miles 10+ km)
Ceiling: at least 12,000 feet AGL
Clouds: scattered clouds at 18000 feet AGL
Weather: no significant weather forecast for this period